Wake Forest, NC

10:16 PM EST on December 04, 2016 (GMT -0500)
Heritage Heights | | Change Station

Elev 312 ft 35.96 °N, 78.50 °W | Updated 59 seconds ago

Rain
Rain
41.5 °F
Feels Like 42 °F
N
0.0
Wind Variable Wind from South

Today
High -- | Low -- °F
--% Chance of Precip.
Yesterday
High -- | Low -- °F
Precip. -- in
Pressure 30.14 in
Visibility 4.0 miles
Clouds Scattered Clouds 700 ft
Mostly Cloudy 1800 ft
Overcast 3700 ft
Windchill 42 °F
Dew Point 41 °F
Humidity 98%
Rainfall 0.07 in
Snow Depth Not available.
7:09 AM 4:59 PM
Waxing Crescent, 27% visible
METAR KLHZ 050305Z AUTO 00000KT 4SM RA SCT007 BKN018 OVC037 05/05 A3014 RMK AO2
Pressure 30.14 in
Visibility 4.0 miles
Clouds Scattered Clouds 700 ft
Mostly Cloudy 1800 ft
Overcast 3700 ft
Windchill 42 °F
Dew Point 41 °F
Humidity 98%
Rainfall 0.07 in
Snow Depth Not available.
7:09 AM 4:59 PM
Waxing Crescent, 27% visible
METAR KLHZ 050305Z AUTO 00000KT 4SM RA SCT007 BKN018 OVC037 05/05 A3014 RMK AO2

10-Day Weather Forecast

Almanac

Astronomy

Dec. 04, 2016 Rise Set
Actual Time
Civil Twilight
Nautical Twilight
Astronomical Twilight
Moon
Length of Visible Light
Length of Day
Tomorrow will be .
, % of the Moon is Illuminated

Today's Extremes

State Highs State Lows

Community

WunderPhotos

Upload Photos

1,955,752 photos uploaded!

WunderBlog® & News

Nearby

Air Quality

  Air Quality AQ Index Pollutant
Not available.

Snow Depth

Station Depth Elevation

Earthquake Activity

City Distance Mag. Time & Date
Minimum magnitude displayed is 2.5.

Coastal Water Temperatures

Place Temperature

Stations

Nearby Weather Stations

Station Location Temp. Windchill Dew Point Humidity Wind Precip. Elev Updated Type
                   

Watches & Warnings

There are currently no watches in effect.